createdAt,value
2023-05-03T00:01:00.140Z,99.90
2023-05-03T00:03:29.214Z,99.90
2023-05-03T00:05:58.592Z,99.90
2023-05-03T00:08:29.405Z,99.90
2023-05-03T00:11:01.327Z,99.90
2023-05-03T00:13:30.137Z,99.90
2023-05-03T00:15:59.233Z,99.90
2023-05-03T00:18:28.097Z,99.90
2023-05-03T00:20:57.239Z,99.90
2023-05-03T00:23:26.888Z,99.90
2023-05-03T00:25:58.310Z,99.90
2023-05-03T00:28:27.512Z,99.90
2023-05-03T00:30:56.502Z,99.90
2023-05-03T00:33:25.288Z,99.90
2023-05-03T00:35:54.173Z,99.90
2023-05-03T00:38:22.983Z,99.90
2023-05-03T00:40:56.737Z,99.90
2023-05-03T00:43:25.679Z,99.90
2023-05-03T00:45:59.383Z,99.90
2023-05-03T00:48:37.488Z,99.90
2023-05-03T00:51:07.864Z,99.90
2023-05-03T00:53:36.925Z,99.90
2023-05-03T00:56:08.234Z,99.90
2023-05-03T00:58:40.312Z,99.90
2023-05-03T01:01:09.640Z,99.90
2023-05-03T01:03:42.023Z,99.90
2023-05-03T01:06:19.048Z,99.90
2023-05-03T01:08:56.041Z,99.90
2023-05-03T01:11:34.187Z,99.90
2023-05-03T01:14:10.291Z,99.90
2023-05-03T01:16:45.590Z,99.90
2023-05-03T01:19:26.995Z,99.90
2023-05-03T01:22:04.817Z,99.90
2023-05-03T01:24:38.714Z,99.90
2023-05-03T01:27:09.771Z,99.90
2023-05-03T01:29:38.650Z,99.90
2023-05-03T01:32:16.778Z,99.90
2023-05-03T01:34:52.457Z,99.90
2023-05-03T01:37:21.932Z,99.90
2023-05-03T01:39:57.070Z,99.90
2023-05-03T01:42:28.656Z,99.90
2023-05-03T01:44:58.098Z,99.90
2023-05-03T01:47:27.155Z,99.90
2023-05-03T01:49:55.937Z,99.90
2023-05-03T01:52:25.125Z,99.90
2023-05-03T01:54:54.116Z,99.90
2023-05-03T01:57:23.262Z,99.90
2023-05-03T01:59:53.668Z,99.90
2023-05-03T02:02:22.722Z,99.90
2023-05-03T02:04:51.607Z,99.90
2023-05-03T02:07:20.817Z,99.90
2023-05-03T02:09:50.128Z,99.90
2023-05-03T02:12:19.209Z,99.90
2023-05-03T02:14:49.188Z,99.90
2023-05-03T02:17:21.072Z,99.90
2023-05-03T02:19:50.037Z,99.90
2023-05-03T02:22:19.254Z,99.90
2023-05-03T02:24:49.742Z,99.90
2023-05-03T02:27:18.887Z,99.90
2023-05-03T02:29:47.806Z,99.90
2023-05-03T02:32:17.152Z,99.90
2023-05-03T02:34:50.769Z,99.90
2023-05-03T02:37:22.835Z,99.90
2023-05-03T02:39:51.954Z,99.90
2023-05-03T02:42:20.967Z,99.90
2023-05-03T02:44:51.148Z,99.90
2023-05-03T02:47:21.509Z,99.90
2023-05-03T02:49:52.368Z,99.90
2023-05-03T02:52:24.132Z,99.90
2023-05-03T02:54:53.363Z,99.90
2023-05-03T02:57:22.867Z,99.90
2023-05-03T02:59:52.067Z,99.90
2023-05-03T03:02:22.096Z,99.90
2023-05-03T03:04:53.358Z,99.90
2023-05-03T03:07:22.269Z,99.90
2023-05-03T03:09:56.828Z,99.90
2023-05-03T03:12:26.422Z,99.90
2023-05-03T03:14:56.529Z,99.90
2023-05-03T03:17:26.526Z,99.90
2023-05-03T03:19:58.325Z,99.90
2023-05-03T03:22:28.052Z,99.90
2023-05-03T03:24:57.062Z,99.90
2023-05-03T03:27:26.151Z,99.90
2023-05-03T03:29:55.204Z,99.90
2023-05-03T03:32:24.528Z,99.90
2023-05-03T03:34:56.199Z,99.90
2023-05-03T03:37:25.083Z,99.90
2023-05-03T03:39:55.902Z,99.90
2023-05-03T03:42:25.991Z,99.90
2023-05-03T03:44:55.173Z,99.90
2023-05-03T03:47:24.276Z,99.90
2023-05-03T03:49:53.383Z,99.90
2023-05-03T03:52:23.942Z,99.90
2023-05-03T03:54:52.748Z,99.90
2023-05-03T03:57:21.727Z,99.90
2023-05-03T03:59:50.585Z,99.90
2023-05-03T04:02:19.763Z,99.90
2023-05-03T04:04:48.850Z,99.90
2023-05-03T04:07:19.826Z,99.90
2023-05-03T04:09:50.467Z,99.90
2023-05-03T04:12:20.033Z,99.90
2023-05-03T04:14:48.956Z,99.90
2023-05-03T04:17:17.870Z,99.90
2023-05-03T04:19:47.264Z,99.90
2023-05-03T04:22:16.587Z,99.90
2023-05-03T04:24:46.015Z,99.90
2023-05-03T04:27:18.233Z,99.90
2023-05-03T04:29:49.125Z,99.90
2023-05-03T04:32:23.291Z,99.90
2023-05-03T04:34:55.167Z,99.90
2023-05-03T04:37:27.602Z,99.90
2023-05-03T04:39:56.504Z,99.90
2023-05-03T04:42:27.054Z,99.90
2023-05-03T04:44:56.110Z,99.90
2023-05-03T04:47:25.287Z,99.90
2023-05-03T04:49:54.962Z,99.90
2023-05-03T04:52:23.953Z,99.90
2023-05-03T04:54:53.143Z,99.90
2023-05-03T04:57:22.642Z,99.90
2023-05-03T04:59:54.082Z,99.90
2023-05-03T05:02:23.699Z,99.90
2023-05-03T05:04:52.568Z,99.90
2023-05-03T05:07:22.221Z,99.90
2023-05-03T05:09:51.418Z,99.90
2023-05-03T05:12:20.311Z,99.90
2023-05-03T05:14:49.586Z,99.90
2023-05-03T05:17:20.387Z,99.90
2023-05-03T05:19:49.809Z,99.90
2023-05-03T05:22:19.853Z,99.90
2023-05-03T05:24:55.248Z,99.90
2023-05-03T05:27:25.445Z,99.90
2023-05-03T05:29:56.193Z,99.90
2023-05-03T05:32:27.160Z,99.90
2023-05-03T05:34:56.570Z,99.90
2023-05-03T05:37:28.777Z,99.90
2023-05-03T05:40:01.843Z,99.90
2023-05-03T05:42:37.250Z,99.90
2023-05-03T05:45:08.327Z,99.90
2023-05-03T05:47:39.834Z,99.90
2023-05-03T05:50:17.657Z,99.90
2023-05-03T05:52:53.198Z,99.90
2023-05-03T05:55:23.541Z,99.90
2023-05-03T05:57:53.703Z,99.90
2023-05-03T06:00:26.824Z,99.90
2023-05-03T06:02:57.290Z,99.90
2023-05-03T06:05:26.875Z,99.90
2023-05-03T06:07:55.986Z,99.90
2023-05-03T06:10:25.194Z,99.90
2023-05-03T06:12:56.464Z,99.90
2023-05-03T06:15:27.860Z,99.90
2023-05-03T06:17:58.740Z,99.90
2023-05-03T06:20:27.659Z,99.90
2023-05-03T06:22:57.552Z,99.90
2023-05-03T06:25:26.797Z,99.90
2023-05-03T06:27:56.104Z,99.90
2023-05-03T06:30:28.739Z,99.90
2023-05-03T06:33:05.373Z,99.90
2023-05-03T06:35:37.537Z,99.90
2023-05-03T06:38:06.840Z,99.90
2023-05-03T06:40:38.349Z,99.90
2023-05-03T06:43:07.650Z,99.90
2023-05-03T06:45:41.048Z,99.90
2023-05-03T06:48:11.660Z,99.90
2023-05-03T06:50:41.235Z,99.90
2023-05-03T06:53:10.772Z,99.90
2023-05-03T06:55:39.774Z,99.90
2023-05-03T06:58:10.317Z,99.90
2023-05-03T07:00:40.149Z,99.90
2023-05-03T07:03:10.632Z,99.90
2023-05-03T07:05:39.731Z,99.90
2023-05-03T07:08:08.679Z,99.90
2023-05-03T07:10:37.713Z,99.90
2023-05-03T07:13:06.571Z,99.90
2023-05-03T07:15:36.468Z,99.90
2023-05-03T07:18:05.486Z,99.90
2023-05-03T07:20:36.894Z,99.90
2023-05-03T07:23:06.728Z,99.90
2023-05-03T07:25:35.967Z,99.90
2023-05-03T07:28:05.086Z,99.90
2023-05-03T07:30:33.815Z,99.90
2023-05-03T07:33:02.820Z,99.90
2023-05-03T07:35:33.145Z,99.90
2023-05-03T07:38:03.324Z,99.90
2023-05-03T07:40:33.514Z,99.90
2023-05-03T07:43:03.146Z,99.90
2023-05-03T07:45:32.116Z,99.90
2023-05-03T07:48:01.198Z,99.90
2023-05-03T07:50:30.631Z,99.90
2023-05-03T07:52:59.549Z,99.90
2023-05-03T07:55:31.455Z,99.90
2023-05-03T07:58:00.328Z,99.90
2023-05-03T08:00:29.316Z,99.90
2023-05-03T08:02:58.295Z,99.90
2023-05-03T08:05:27.596Z,99.90
2023-05-03T08:07:56.792Z,99.90
2023-05-03T08:10:25.619Z,99.90
2023-05-03T08:12:55.904Z,99.90
2023-05-03T08:15:24.843Z,99.90
2023-05-03T08:17:54.072Z,99.90
2023-05-03T08:20:27.516Z,99.90
2023-05-03T08:22:56.988Z,99.90
2023-05-03T08:25:26.236Z,99.90
2023-05-03T08:27:57.894Z,99.90
2023-05-03T08:30:27.194Z,99.90
2023-05-03T08:32:56.427Z,99.90
2023-05-03T08:35:25.925Z,99.90
2023-05-03T08:37:55.063Z,99.90
2023-05-03T08:40:24.092Z,99.90
2023-05-03T08:42:53.833Z,99.90
2023-05-03T08:45:25.340Z,99.90
2023-05-03T08:47:55.820Z,99.90
2023-05-03T08:50:27.341Z,99.90
2023-05-03T08:52:57.152Z,99.90
2023-05-03T08:55:26.400Z,99.90
2023-05-03T08:57:55.870Z,99.90
2023-05-03T09:00:30.780Z,99.90
2023-05-03T09:03:00.404Z,99.90
2023-05-03T09:05:34.232Z,99.90
2023-05-03T09:08:04.986Z,99.90
2023-05-03T09:10:34.422Z,99.90
2023-05-03T09:13:04.643Z,99.90
2023-05-03T09:15:36.281Z,99.90
2023-05-03T09:18:09.403Z,99.90
2023-05-03T09:20:39.685Z,99.90
2023-05-03T09:23:09.986Z,99.90
2023-05-03T09:25:43.422Z,99.90
2023-05-03T09:28:12.374Z,99.90
2023-05-03T09:30:43.597Z,99.90
2023-05-03T09:33:19.285Z,99.90
2023-05-03T09:35:59.766Z,99.90
2023-05-03T09:38:30.305Z,99.90
2023-05-03T09:40:59.508Z,99.90
2023-05-03T09:43:28.958Z,99.90
2023-05-03T09:46:11.415Z,99.90
2023-05-03T09:48:42.129Z,99.90
2023-05-03T09:51:13.342Z,99.90
2023-05-03T09:53:42.972Z,99.90
2023-05-03T09:56:14.511Z,99.90
2023-05-03T09:58:44.615Z,99.90
2023-05-03T10:01:17.340Z,99.90
2023-05-03T10:03:50.752Z,99.90
2023-05-03T10:06:26.855Z,99.90
2023-05-03T10:09:06.148Z,99.90
2023-05-03T10:11:37.653Z,99.90
2023-05-03T10:14:07.754Z,99.90
2023-05-03T10:16:42.004Z,99.90
2023-05-03T10:19:15.913Z,99.90
2023-05-03T10:21:56.850Z,99.90
2023-05-03T10:24:25.900Z,99.90
2023-05-03T10:26:57.671Z,99.90
2023-05-03T10:29:49.102Z,99.90
2023-05-03T10:32:36.945Z,99.90
2023-05-03T10:35:09.219Z,99.90
2023-05-03T10:37:38.259Z,99.90
2023-05-03T10:40:12.051Z,99.90
2023-05-03T10:42:44.580Z,99.70
2023-05-03T10:45:25.443Z,98.80
2023-05-03T10:48:23.001Z,99.10
2023-05-03T10:50:53.250Z,98.90
2023-05-03T10:53:39.651Z,99.00
2023-05-03T10:56:10.155Z,99.00
2023-05-03T10:58:41.110Z,99.50
2023-05-03T11:01:12.389Z,98.80
2023-05-03T11:03:56.273Z,99.40
2023-05-03T11:06:33.952Z,99.90
2023-05-03T11:09:04.518Z,98.00
2023-05-03T11:11:33.921Z,96.80
2023-05-03T11:14:03.368Z,96.10
2023-05-03T11:16:32.507Z,95.90
2023-05-03T11:19:04.328Z,97.30
2023-05-03T11:21:34.275Z,97.50
2023-05-03T11:24:03.398Z,98.10
2023-05-03T11:26:37.532Z,97.00
2023-05-03T11:29:07.142Z,96.80
2023-05-03T11:31:36.738Z,96.50
2023-05-03T11:34:08.775Z,95.70
2023-05-03T11:36:37.904Z,95.10
2023-05-03T11:39:07.002Z,95.50
2023-05-03T11:41:36.337Z,95.50
2023-05-03T11:44:16.123Z,95.40
2023-05-03T11:46:48.499Z,95.00
2023-05-03T11:49:21.156Z,94.70
2023-05-03T11:51:53.679Z,94.30
2023-05-03T11:54:27.487Z,94.80
2023-05-03T11:56:59.741Z,95.50
2023-05-03T11:59:40.587Z,95.00
2023-05-03T12:02:13.514Z,95.20
2023-05-03T12:04:46.411Z,95.10
2023-05-03T12:07:18.581Z,95.40
2023-05-03T12:10:00.983Z,93.70
2023-05-03T12:12:42.547Z,91.40
2023-05-03T12:15:16.418Z,88.30
2023-05-03T12:17:48.958Z,89.00
2023-05-03T12:22:57.990Z,89.00
2023-05-03T12:25:33.042Z,87.70
2023-05-03T12:30:37.122Z,85.80
2023-05-03T12:33:10.401Z,83.70
2023-05-03T12:35:41.692Z,84.40
2023-05-03T12:38:11.016Z,85.60
2023-05-03T12:40:40.958Z,85.70
2023-05-03T12:43:10.439Z,86.40
2023-05-03T12:45:40.891Z,88.90
2023-05-03T12:48:10.490Z,90.20
2023-05-03T12:50:44.833Z,90.60
2023-05-03T12:53:16.976Z,89.80
2023-05-03T12:55:51.224Z,90.40
2023-05-03T13:03:31.965Z,88.80
2023-05-03T13:06:12.521Z,89.30
2023-05-03T13:11:14.790Z,84.90
2023-05-03T13:13:43.706Z,85.20
2023-05-03T13:16:13.353Z,87.20
2023-05-03T13:18:45.547Z,87.00
2023-05-03T13:21:16.067Z,87.00
2023-05-03T13:23:46.183Z,87.10
2023-05-03T13:26:16.640Z,85.10
2023-05-03T13:28:45.941Z,84.40
2023-05-03T13:31:14.590Z,83.20
2023-05-03T13:33:43.719Z,82.00
2023-05-03T13:36:12.469Z,81.50
2023-05-03T13:38:43.003Z,80.40
2023-05-03T13:41:11.970Z,82.50
2023-05-03T13:43:42.171Z,83.60
2023-05-03T13:46:11.435Z,83.20
2023-05-03T13:48:40.494Z,82.80
2023-05-03T13:51:10.709Z,80.60
2023-05-03T13:53:40.002Z,80.50
2023-05-03T13:56:10.891Z,82.90
2023-05-03T13:58:40.698Z,82.30
2023-05-03T14:01:09.941Z,83.90
2023-05-03T14:03:38.779Z,85.20
2023-05-03T14:06:09.016Z,83.50
2023-05-03T14:08:37.988Z,82.50
2023-05-03T14:11:06.940Z,83.30
2023-05-03T14:13:53.899Z,82.00
2023-05-03T14:16:38.814Z,77.90
2023-05-03T14:19:11.860Z,80.00
2023-05-03T14:21:42.368Z,80.80
2023-05-03T14:24:11.607Z,81.70
2023-05-03T14:26:40.457Z,81.20
2023-05-03T14:29:11.206Z,79.50
2023-05-03T14:31:40.276Z,74.50
2023-05-03T14:34:09.297Z,75.80
2023-05-03T14:36:43.681Z,75.20
2023-05-03T14:39:14.507Z,77.10
2023-05-03T14:41:46.294Z,77.80
2023-05-03T14:44:16.775Z,76.90
2023-05-03T14:46:46.944Z,75.40
2023-05-03T14:49:17.555Z,77.20
2023-05-03T14:51:47.642Z,78.20
2023-05-03T14:54:16.524Z,78.50
2023-05-03T14:56:45.611Z,74.30
2023-05-03T14:59:14.636Z,74.60
2023-05-03T15:01:45.062Z,75.70
2023-05-03T15:04:14.024Z,75.60
2023-05-03T15:06:43.088Z,76.10
2023-05-03T15:09:13.134Z,76.40
2023-05-03T15:11:42.136Z,76.30
2023-05-03T15:14:11.629Z,75.80
2023-05-03T15:16:41.111Z,76.10
2023-05-03T15:19:11.201Z,76.40
2023-05-03T15:21:50.636Z,77.10
2023-05-03T15:24:19.950Z,77.70
2023-05-03T15:26:49.192Z,77.90
2023-05-03T15:29:18.156Z,77.70
2023-05-03T15:31:47.962Z,77.50
2023-05-03T15:34:18.212Z,71.70
2023-05-03T15:36:47.350Z,73.80
2023-05-03T15:39:16.314Z,75.00
2023-05-03T15:41:45.818Z,75.30
2023-05-03T15:44:15.147Z,73.70
2023-05-03T15:46:44.772Z,73.80
2023-05-03T15:49:13.999Z,73.40
2023-05-03T15:51:44.295Z,72.60
2023-05-03T15:54:13.065Z,73.50
2023-05-03T15:56:41.920Z,74.40
2023-05-03T15:59:14.964Z,74.70
2023-05-03T16:01:43.838Z,73.80
2023-05-03T16:04:12.681Z,73.40
2023-05-03T16:06:42.350Z,73.10
2023-05-03T16:09:13.005Z,74.90
2023-05-03T16:11:42.061Z,74.10
2023-05-03T16:14:10.965Z,74.00
2023-05-03T16:16:40.347Z,73.70
2023-05-03T16:19:09.428Z,72.40
2023-05-03T16:21:38.423Z,73.10
2023-05-03T16:24:07.685Z,72.60
2023-05-03T16:26:38.458Z,72.50
2023-05-03T16:29:07.551Z,72.00
2023-05-03T16:31:36.742Z,69.10
2023-05-03T16:34:05.577Z,67.10
2023-05-03T16:36:34.441Z,65.50
2023-05-03T16:39:03.357Z,64.10
2023-05-03T16:41:32.257Z,62.90
2023-05-03T16:44:04.995Z,61.60
2023-05-03T16:46:35.175Z,60.10
2023-05-03T16:49:04.372Z,59.20
2023-05-03T16:51:33.814Z,58.70
2023-05-03T16:54:04.552Z,58.90
2023-05-03T16:56:33.608Z,56.60
2023-05-03T16:59:04.274Z,56.40
2023-05-03T17:01:33.463Z,55.60
2023-05-03T17:04:06.564Z,56.10
2023-05-03T17:06:35.551Z,56.20
2023-05-03T17:09:04.732Z,56.40
2023-05-03T17:11:34.002Z,56.00
2023-05-03T17:14:04.260Z,55.90
2023-05-03T17:16:33.309Z,56.40
2023-05-03T17:19:02.545Z,56.60
2023-05-03T17:21:31.516Z,56.60
2023-05-03T17:24:00.459Z,57.30
2023-05-03T17:26:29.274Z,57.80
2023-05-03T17:28:58.164Z,58.10
2023-05-03T17:31:28.428Z,57.70
2023-05-03T17:33:57.488Z,59.00
2023-05-03T17:36:27.269Z,59.70
2023-05-03T17:38:56.587Z,60.10
2023-05-03T17:41:25.473Z,60.80
2023-05-03T17:43:54.344Z,61.70
2023-05-03T17:46:23.941Z,62.90
2023-05-03T17:48:54.886Z,63.90
2023-05-03T17:51:23.707Z,65.30
2023-05-03T17:53:52.768Z,66.90
2023-05-03T17:56:21.536Z,68.50
2023-05-03T17:58:50.400Z,69.60
2023-05-03T18:01:19.347Z,70.30
2023-05-03T18:03:50.924Z,71.50
2023-05-03T18:06:21.476Z,72.60
2023-05-03T18:08:50.414Z,73.70
2023-05-03T18:11:19.495Z,74.50
2023-05-03T18:13:50.366Z,76.00
2023-05-03T18:16:19.307Z,76.10
2023-05-03T18:18:48.232Z,77.00
2023-05-03T18:21:18.772Z,77.80
2023-05-03T18:23:49.179Z,78.10
2023-05-03T18:26:18.361Z,78.90
2023-05-03T18:28:47.188Z,79.20
2023-05-03T18:31:16.181Z,80.00
2023-05-03T18:33:45.081Z,80.30
2023-05-03T18:36:15.666Z,80.80
2023-05-03T18:38:46.825Z,82.10
2023-05-03T18:41:17.720Z,82.90
2023-05-03T18:43:48.064Z,83.10
2023-05-03T18:46:19.557Z,83.70
2023-05-03T18:48:49.245Z,84.10
2023-05-03T18:51:19.132Z,84.70
2023-05-03T18:53:50.041Z,84.90
2023-05-03T18:56:20.460Z,85.70
2023-05-03T18:58:49.293Z,86.70
2023-05-03T19:01:18.536Z,87.80
2023-05-03T19:03:47.510Z,89.00
2023-05-03T19:06:16.553Z,89.60
2023-05-03T19:08:47.001Z,90.30
2023-05-03T19:11:17.184Z,90.50
2023-05-03T19:13:49.408Z,90.80
2023-05-03T19:16:18.705Z,90.80
2023-05-03T19:18:50.824Z,90.90
2023-05-03T19:21:20.509Z,91.00
2023-05-03T19:23:51.547Z,91.50
2023-05-03T19:26:20.396Z,91.70
2023-05-03T19:28:50.780Z,91.60
2023-05-03T19:31:19.890Z,91.80
2023-05-03T19:33:48.929Z,91.80
2023-05-03T19:36:17.795Z,91.80
2023-05-03T19:38:46.712Z,91.90
2023-05-03T19:41:15.566Z,91.90
2023-05-03T19:43:44.534Z,92.10
2023-05-03T19:46:16.477Z,92.20
2023-05-03T19:48:45.587Z,92.50
2023-05-03T19:51:15.117Z,92.60
2023-05-03T19:53:45.109Z,92.90
2023-05-03T19:56:17.873Z,92.90
2023-05-03T19:58:46.819Z,93.00
2023-05-03T20:01:17.283Z,92.90
2023-05-03T20:03:46.844Z,92.90
2023-05-03T20:06:16.149Z,93.10
2023-05-03T20:08:45.066Z,93.30
2023-05-03T20:11:14.316Z,93.30
2023-05-03T20:13:43.182Z,93.40
2023-05-03T20:16:13.006Z,93.40
2023-05-03T20:18:43.726Z,93.80
2023-05-03T20:21:13.987Z,93.70
2023-05-03T20:23:43.014Z,94.00
2023-05-03T20:26:12.012Z,94.20
2023-05-03T20:28:40.797Z,94.30
2023-05-03T20:31:10.987Z,94.70
2023-05-03T20:33:39.893Z,94.80
2023-05-03T20:36:10.213Z,95.10
2023-05-03T20:38:39.220Z,95.10
2023-05-03T20:41:08.081Z,95.20
2023-05-03T20:43:37.122Z,95.20
2023-05-03T20:46:06.292Z,95.40
2023-05-03T20:48:35.223Z,95.60
2023-05-03T20:51:04.191Z,95.70
2023-05-03T20:53:34.637Z,95.90
2023-05-03T20:56:07.922Z,96.20
2023-05-03T20:58:36.982Z,96.50
2023-05-03T21:01:06.977Z,96.90
2023-05-03T21:03:36.411Z,97.00
2023-05-03T21:06:06.836Z,97.00
2023-05-03T21:08:37.596Z,97.50
2023-05-03T21:11:06.804Z,97.90
2023-05-03T21:13:36.189Z,98.30
2023-05-03T21:16:07.986Z,98.70
2023-05-03T21:18:37.741Z,99.00
2023-05-03T21:21:06.642Z,99.30
2023-05-03T21:23:36.841Z,99.50
2023-05-03T21:26:06.295Z,99.80
2023-05-03T21:28:35.122Z,99.90
2023-05-03T21:31:06.754Z,99.90
2023-05-03T21:33:35.731Z,99.90
2023-05-03T21:36:05.142Z,99.90
2023-05-03T21:38:34.079Z,99.90
2023-05-03T21:41:08.262Z,99.90
2023-05-03T21:43:40.286Z,99.90
2023-05-03T21:46:09.390Z,99.90
2023-05-03T21:48:38.282Z,99.90
2023-05-03T21:51:07.356Z,99.90
2023-05-03T21:53:36.213Z,99.90
2023-05-03T21:56:06.846Z,99.90
2023-05-03T21:58:36.124Z,99.90
2023-05-03T22:01:05.203Z,99.90
2023-05-03T22:03:34.208Z,99.90
2023-05-03T22:06:04.034Z,99.90
2023-05-03T22:08:32.909Z,99.90
2023-05-03T22:11:01.895Z,99.90
2023-05-03T22:13:32.394Z,99.90
2023-05-03T22:16:06.134Z,99.90
2023-05-03T22:18:35.814Z,99.90
2023-05-03T22:21:06.473Z,99.90
2023-05-03T22:23:36.593Z,99.90
2023-05-03T22:26:05.646Z,99.90
2023-05-03T22:28:36.753Z,99.90
2023-05-03T22:31:06.345Z,99.90
2023-05-03T22:33:35.682Z,99.90
2023-05-03T22:36:04.964Z,99.90
2023-05-03T22:38:34.050Z,99.90
2023-05-03T22:41:06.012Z,99.90
2023-05-03T22:43:36.526Z,99.90
2023-05-03T22:46:05.484Z,99.90
2023-05-03T22:48:34.257Z,99.90
2023-05-03T22:51:06.249Z,99.90
2023-05-03T22:53:35.317Z,99.90
2023-05-03T22:56:05.660Z,99.90
2023-05-03T22:58:36.232Z,99.90
2023-05-03T23:01:05.714Z,99.90
2023-05-03T23:03:36.481Z,99.90
2023-05-03T23:06:05.839Z,99.90
2023-05-03T23:08:34.750Z,99.90
2023-05-03T23:11:03.659Z,99.90
2023-05-03T23:13:32.754Z,99.90
2023-05-03T23:16:03.460Z,99.90
2023-05-03T23:18:35.404Z,99.90
2023-05-03T23:21:04.618Z,99.90
2023-05-03T23:23:33.691Z,99.90
2023-05-03T23:26:02.598Z,99.90
2023-05-03T23:28:32.252Z,99.90
2023-05-03T23:31:03.121Z,99.90
2023-05-03T23:33:32.691Z,99.90
2023-05-03T23:36:01.535Z,99.90
2023-05-03T23:38:33.466Z,99.90
2023-05-03T23:41:02.487Z,99.90
2023-05-03T23:43:31.617Z,99.90
2023-05-03T23:46:02.069Z,99.90
2023-05-03T23:48:31.646Z,99.90
2023-05-03T23:51:00.538Z,99.90
2023-05-03T23:53:29.348Z,99.90
2023-05-03T23:55:58.287Z,99.90
2023-05-03T23:58:27.103Z,99.90
